CDT,Max TemperatureF,Mean TemperatureF,Min TemperatureF,Max Dew PointF,MeanDew PointF,Min DewpointF,Max Humidity, Mean Humidity, Min Humidity, Max Sea Level PressureIn, Mean Sea Level PressureIn, Min Sea Level PressureIn, Max VisibilityMiles, Mean VisibilityMiles, Min VisibilityMiles, Max Wind SpeedMPH, Mean Wind SpeedMPH, Max Gust SpeedMPH,PrecipitationIn, CloudCover, Events, WindDirDegrees
2012-10-1,66,52,39,51,42,37,100,81,43,29.96,29.91,29.85,10,6,0,8,1,,0.00,0,Fog,346
2012-10-2,70,58,48,53,48,44,93,73,40,29.94,29.89,29.83,10,9,4,13,5,17,0.01,1,,25
2012-10-3,64,60,55,61,57,54,94,87,77,30.01,29.95,29.91,10,6,2,9,4,,0.05,8,Rain,9
2012-10-4,78,64,48,57,49,34,90,67,43,30.09,30.01,29.94,10,9,4,24,10,31,0.03,3,Rain,237
2012-10-5,52,44,36,33,28,23,79,54,36,30.14,30.09,30.04,10,10,10,17,9,25,0.00,1,,270
2012-10-6,48,39,30,28,26,24,79,55,41,30.19,30.13,30.06,10,10,10,16,8,24,0.00,5,,290
2012-10-7,51,42,34,29,22,17,67,48,27,30.19,30.16,30.12,10,10,10,12,6,22,0.00,4,,280
2012-10-8,61,46,32,30,25,21,66,44,25,30.14,30.06,29.96,10,10,10,21,10,32,0.00,0,,212
2012-10-9,66,52,41,41,36,31,89,60,34,29.95,29.87,29.77,10,9,2,24,14,33,0.29,4,Rain,244
2012-10-10,51,42,34,38,28,22,93,64,35,30.17,30.06,29.90,10,10,10,20,9,33,0.01,2,,271
2012-10-11,68,52,36,39,32,28,74,52,27,30.28,30.10,30.01,10,10,10,24,12,37,0.01,2,Rain,246
2012-10-12,51,42,33,35,30,23,70,60,46,30.47,30.40,30.27,10,10,10,13,8,17,0.00,1,,74
2012-10-13,64,54,44,61,49,31,93,81,52,30.24,29.96,29.80,10,6,2,17,10,23,0.28,8,Rain,185
2012-10-14,66,57,48,63,56,44,94,89,81,29.76,29.61,29.42,10,6,2,21,10,30,0.40,7,Rain,219
2012-10-15,57,48,41,43,39,37,86,73,49,29.98,29.89,29.77,10,10,10,13,8,20,0.00,4,,309
2012-10-16,66,52,41,51,44,37,89,68,48,29.96,29.74,29.52,10,10,7,20,9,23,0.00,1,,166
2012-10-17,66,60,53,57,52,46,94,75,54,29.51,29.38,29.25,10,7,2,26,15,37,0.38,5,Rain,194
2012-10-18,53,48,44,50,42,36,89,79,61,29.49,29.38,29.28,10,10,6,21,13,33,0.04,7,Rain,221
2012-10-19,53,48,44,43,41,39,90,83,61,29.64,29.51,29.44,10,9,2,9,6,,0.13,8,Rain,276
2012-10-20,59,48,39,43,40,35,93,76,49,29.94,29.79,29.65,10,10,5,15,7,,0.00,4,,274
2012-10-21,62,47,33,50,41,32,97,81,57,30.05,30.00,29.96,10,8,0,12,4,,0.00,0,Fog,158
2012-10-22,62,54,46,59,54,45,100,89,72,29.98,29.93,29.87,10,4,0,12,4,,0.35,6,Fog-Rain,101
2012-10-23,64,58,53,61,56,52,100,94,88,29.96,29.91,29.88,5,1,0,9,4,,0.29,6,Fog-Rain-Thunderstorm,113
2012-10-24,78,69,60,64,61,59,96,79,62,29.93,29.88,29.82,10,8,3,14,7,21,0.01,3,,191
2012-10-25,75,58,43,61,54,37,87,75,64,30.00,29.77,29.64,10,9,2,24,16,39,0.13,6,Rain,228
2012-10-26,50,41,34,32,28,24,76,61,38,30.34,30.26,30.09,10,10,10,18,9,25,0.00,0,,326
2012-10-27,46,38,30,26,24,23,76,61,42,30.36,30.32,30.29,10,10,10,12,6,16,0.00,1,,348
2012-10-28,48,41,34,33,28,22,76,63,51,30.33,30.31,30.30,10,10,10,17,9,25,0.00,4,,2
2012-10-29,50,42,34,32,28,24,76,59,46,30.32,30.25,30.08,10,10,10,20,10,29,0.00,0,,356
2012-10-30,46,42,37,27,25,22,65,52,42,30.05,29.88,29.81,10,10,10,23,17,32,0.05,3,,348
2012-10-31,48,40,32,30,25,18,69,59,48,29.86,29.83,29.80,10,10,10,16,13,26,0.00,6,,316